sensor_id;sensor_type;location;lat;lon;timestamp;P1;durP1;ratioP1;P2;durP2;ratioP2
59271;SDS011;45043;51.068;7.026;2023-04-28T03:10:07;9.60;;;7.07;;
59271;SDS011;45043;51.068;7.026;2023-04-28T03:13:09;8.83;;;7.53;;
59271;SDS011;45043;51.068;7.026;2023-04-28T03:16:10;7.40;;;6.70;;
59271;SDS011;45043;51.068;7.026;2023-04-28T03:19:11;9.43;;;7.20;;
59271;SDS011;45043;51.068;7.026;2023-04-28T03:22:11;10.53;;;6.90;;
59271;SDS011;45043;51.068;7.026;2023-04-28T03:25:12;10.53;;;7.33;;
59271;SDS011;45043;51.068;7.026;2023-04-28T03:28:22;10.50;;;6.97;;
59271;SDS011;45043;51.068;7.026;2023-04-28T03:31:23;9.33;;;6.70;;
59271;SDS011;45043;51.068;7.026;2023-04-28T03:34:23;9.23;;;6.80;;
59271;SDS011;45043;51.068;7.026;2023-04-28T03:37:24;7.47;;;6.67;;
59271;SDS011;45043;51.068;7.026;2023-04-28T03:40:24;11.23;;;7.13;;
59271;SDS011;45043;51.068;7.026;2023-04-28T03:43:43;10.53;;;7.33;;
59271;SDS011;45043;51.068;7.026;2023-04-28T03:46:54;11.57;;;6.80;;
59271;SDS011;45043;51.068;7.026;2023-04-28T03:49:54;10.27;;;7.47;;
59271;SDS011;45043;51.068;7.026;2023-04-28T03:52:57;8.90;;;7.60;;
59271;SDS011;45043;51.068;7.026;2023-04-28T03:55:58;9.43;;;7.10;;
59271;SDS011;45043;51.068;7.026;2023-04-28T03:58:59;9.30;;;7.67;;
59271;SDS011;45043;51.068;7.026;2023-04-28T04:01:59;9.30;;;7.50;;
59271;SDS011;45043;51.068;7.026;2023-04-28T04:05:00;9.67;;;7.80;;
59271;SDS011;45043;51.068;7.026;2023-04-28T04:08:00;9.40;;;7.67;;
59271;SDS011;45043;51.068;7.026;2023-04-28T04:11:02;9.23;;;7.43;;
59271;SDS011;45043;51.068;7.026;2023-04-28T04:14:04;8.70;;;7.30;;
59271;SDS011;45043;51.068;7.026;2023-04-28T04:17:05;8.57;;;7.50;;
59271;SDS011;45043;51.068;7.026;2023-04-28T04:20:06;8.03;;;7.20;;
59271;SDS011;45043;51.068;7.026;2023-04-28T04:23:07;13.10;;;7.73;;
59271;SDS011;45043;51.068;7.026;2023-04-28T04:26:08;12.80;;;7.80;;
59271;SDS011;45043;51.068;7.026;2023-04-28T04:29:08;13.20;;;7.40;;
59271;SDS011;45043;51.068;7.026;2023-04-28T04:32:09;8.73;;;7.77;;
59271;SDS011;45043;51.068;7.026;2023-04-28T04:35:11;9.13;;;7.50;;
59271;SDS011;45043;51.068;7.026;2023-04-28T04:38:11;7.77;;;7.07;;
59271;SDS011;45043;51.068;7.026;2023-04-28T04:41:12;12.47;;;7.67;;
59271;SDS011;45043;51.068;7.026;2023-04-28T04:44:13;11.23;;;7.77;;
59271;SDS011;45043;51.068;7.026;2023-04-28T04:47:17;7.97;;;7.17;;
59271;SDS011;45043;51.068;7.026;2023-04-28T04:50:19;9.43;;;7.27;;
59271;SDS011;45043;51.068;7.026;2023-04-28T04:53:20;8.83;;;7.20;;
59271;SDS011;45043;51.068;7.026;2023-04-28T04:56:20;6.60;;;5.20;;
59271;SDS011;45043;51.068;7.026;2023-04-28T04:59:22;7.97;;;6.00;;
59271;SDS011;45043;51.068;7.026;2023-04-28T05:02:34;7.33;;;6.37;;
59271;SDS011;45043;51.068;7.026;2023-04-28T05:05:37;7.07;;;5.90;;
59271;SDS011;45043;51.068;7.026;2023-04-28T05:08:53;6.37;;;5.77;;
59271;SDS011;45043;51.068;7.026;2023-04-28T05:11:55;6.30;;;5.80;;
59271;SDS011;45043;51.068;7.026;2023-04-28T05:14:57;8.23;;;6.03;;
59271;SDS011;45043;51.068;7.026;2023-04-28T05:17:58;7.67;;;5.60;;
59271;SDS011;45043;51.068;7.026;2023-04-28T05:20:59;7.17;;;5.60;;
59271;SDS011;45043;51.068;7.026;2023-04-28T05:24:00;12.47;;;6.10;;
59271;SDS011;45043;51.068;7.026;2023-04-28T05:27:02;10.27;;;5.57;;
59271;SDS011;45043;51.068;7.026;2023-04-28T05:30:03;6.30;;;5.00;;
59271;SDS011;45043;51.068;7.026;2023-04-28T05:33:05;8.63;;;5.93;;
59271;SDS011;45043;51.068;7.026;2023-04-28T05:36:06;9.70;;;6.37;;
59271;SDS011;45043;51.068;7.026;2023-04-28T05:39:08;7.60;;;5.30;;
59271;SDS011;45043;51.068;7.026;2023-04-28T05:42:08;7.70;;;6.03;;
59271;SDS011;45043;51.068;7.026;2023-04-28T05:45:09;7.07;;;5.90;;
59271;SDS011;45043;51.068;7.026;2023-04-28T05:48:10;9.17;;;5.30;;
59271;SDS011;45043;51.068;7.026;2023-04-28T05:51:13;7.07;;;5.70;;
59271;SDS011;45043;51.068;7.026;2023-04-28T05:54:14;8.90;;;5.93;;
59271;SDS011;45043;51.068;7.026;2023-04-28T05:57:18;11.37;;;6.20;;
59271;SDS011;45043;51.068;7.026;2023-04-28T06:00:19;6.87;;;6.17;;
59271;SDS011;45043;51.068;7.026;2023-04-28T06:03:21;6.43;;;5.17;;
59271;SDS011;45043;51.068;7.026;2023-04-28T06:06:22;7.47;;;5.63;;
59271;SDS011;45043;51.068;7.026;2023-04-28T06:09:22;9.63;;;5.77;;
59271;SDS011;45043;51.068;7.026;2023-04-28T06:12:23;6.27;;;5.07;;
59271;SDS011;45043;51.068;7.026;2023-04-28T06:15:24;7.60;;;5.77;;
59271;SDS011;45043;51.068;7.026;2023-04-28T06:18:25;6.40;;;5.37;;
59271;SDS011;45043;51.068;7.026;2023-04-28T06:21:26;9.07;;;5.90;;
59271;SDS011;45043;51.068;7.026;2023-04-28T06:24:28;7.43;;;5.40;;
59271;SDS011;45043;51.068;7.026;2023-04-28T06:27:31;8.13;;;5.17;;
59271;SDS011;45043;51.068;7.026;2023-04-28T06:30:32;6.43;;;5.33;;
59271;SDS011;45043;51.068;7.026;2023-04-28T06:33:36;7.73;;;5.83;;
59271;SDS011;45043;51.068;7.026;2023-04-28T06:36:37;7.50;;;6.43;;
59271;SDS011;45043;51.068;7.026;2023-04-28T06:39:38;8.00;;;6.27;;
59271;SDS011;45043;51.068;7.026;2023-04-28T06:42:40;8.30;;;6.27;;
59271;SDS011;45043;51.068;7.026;2023-04-28T06:45:45;7.40;;;6.03;;
59271;SDS011;45043;51.068;7.026;2023-04-28T06:48:46;6.13;;;5.53;;
59271;SDS011;45043;51.068;7.026;2023-04-28T06:51:48;7.53;;;5.97;;
59271;SDS011;45043;51.068;7.026;2023-04-28T06:54:48;6.77;;;4.97;;
59271;SDS011;45043;51.068;7.026;2023-04-28T06:57:50;8.90;;;6.07;;
59271;SDS011;45043;51.068;7.026;2023-04-28T07:00:50;6.77;;;5.23;;
59271;SDS011;45043;51.068;7.026;2023-04-28T07:03:51;7.40;;;6.03;;
59271;SDS011;45043;51.068;7.026;2023-04-28T07:06:51;8.70;;;6.23;;
59271;SDS011;45043;51.068;7.026;2023-04-28T07:09:52;7.17;;;5.97;;
59271;SDS011;45043;51.068;7.026;2023-04-28T07:12:52;7.37;;;6.67;;
59271;SDS011;45043;51.068;7.026;2023-04-28T07:15:53;6.27;;;5.57;;
59271;SDS011;45043;51.068;7.026;2023-04-28T07:18:54;7.00;;;6.30;;
59271;SDS011;45043;51.068;7.026;2023-04-28T07:21:55;8.70;;;6.07;;
59271;SDS011;45043;51.068;7.026;2023-04-28T07:24:55;7.27;;;5.27;;
59271;SDS011;45043;51.068;7.026;2023-04-28T07:27:56;7.53;;;6.70;;
59271;SDS011;45043;51.068;7.026;2023-04-28T07:30:57;9.90;;;6.30;;
59271;SDS011;45043;51.068;7.026;2023-04-28T07:33:57;8.37;;;7.10;;
59271;SDS011;45043;51.068;7.026;2023-04-28T07:36:57;8.30;;;6.40;;
59271;SDS011;45043;51.068;7.026;2023-04-28T07:39:58;11.63;;;7.13;;
59271;SDS011;45043;51.068;7.026;2023-04-28T07:42:59;7.63;;;6.40;;
59271;SDS011;45043;51.068;7.026;2023-04-28T07:45:59;7.27;;;6.57;;
59271;SDS011;45043;51.068;7.026;2023-04-28T07:48:59;7.20;;;6.30;;
59271;SDS011;45043;51.068;7.026;2023-04-28T07:52:00;7.33;;;6.63;;
59271;SDS011;45043;51.068;7.026;2023-04-28T07:55:00;7.70;;;6.57;;
59271;SDS011;45043;51.068;7.026;2023-04-28T07:58:02;9.77;;;7.23;;
59271;SDS011;45043;51.068;7.026;2023-04-28T08:01:02;7.93;;;7.17;;
59271;SDS011;45043;51.068;7.026;2023-04-28T08:04:03;6.50;;;5.90;;
59271;SDS011;45043;51.068;7.026;2023-04-28T08:07:03;7.80;;;7.00;;
59271;SDS011;45043;51.068;7.026;2023-04-28T08:10:04;8.57;;;6.77;;
59271;SDS011;45043;51.068;7.026;2023-04-28T08:13:05;8.43;;;6.47;;
59271;SDS011;45043;51.068;7.026;2023-04-28T08:16:06;6.93;;;5.40;;
59271;SDS011;45043;51.068;7.026;2023-04-28T08:19:07;9.27;;;7.03;;
59271;SDS011;45043;51.068;7.026;2023-04-28T08:22:08;7.77;;;6.70;;
59271;SDS011;45043;51.068;7.026;2023-04-28T08:25:08;7.97;;;6.23;;
59271;SDS011;45043;51.068;7.026;2023-04-28T08:28:09;19.53;;;8.43;;
59271;SDS011;45043;51.068;7.026;2023-04-28T08:31:10;10.70;;;6.13;;
59271;SDS011;45043;51.068;7.026;2023-04-28T08:34:10;7.17;;;6.47;;
59271;SDS011;45043;51.068;7.026;2023-04-28T08:37:11;9.87;;;6.90;;
59271;SDS011;45043;51.068;7.026;2023-04-28T08:40:11;7.33;;;6.60;;
59271;SDS011;45043;51.068;7.026;2023-04-28T08:43:12;8.33;;;7.53;;
59271;SDS011;45043;51.068;7.026;2023-04-28T08:46:14;7.93;;;7.23;;
59271;SDS011;45043;51.068;7.026;2023-04-28T08:49:18;9.83;;;7.40;;
59271;SDS011;45043;51.068;7.026;2023-04-28T08:52:22;6.60;;;5.97;;
59271;SDS011;45043;51.068;7.026;2023-04-28T08:55:26;9.53;;;6.73;;
59271;SDS011;45043;51.068;7.026;2023-04-28T08:58:27;9.77;;;6.57;;
59271;SDS011;45043;51.068;7.026;2023-04-28T09:01:28;12.10;;;7.20;;
59271;SDS011;45043;51.068;7.026;2023-04-28T09:04:29;11.47;;;7.17;;
59271;SDS011;45043;51.068;7.026;2023-04-28T09:07:29;8.63;;;6.00;;
59271;SDS011;45043;51.068;7.026;2023-04-28T09:10:30;9.50;;;7.80;;
59271;SDS011;45043;51.068;7.026;2023-04-28T09:13:30;10.00;;;6.70;;
59271;SDS011;45043;51.068;7.026;2023-04-28T09:16:41;9.97;;;7.47;;
59271;SDS011;45043;51.068;7.026;2023-04-28T09:19:41;8.63;;;7.37;;
59271;SDS011;45043;51.068;7.026;2023-04-28T09:22:42;7.40;;;6.50;;
59271;SDS011;45043;51.068;7.026;2023-04-28T09:29:11;8.63;;;6.30;;
59271;SDS011;45043;51.068;7.026;2023-04-28T09:32:13;7.20;;;6.43;;
59271;SDS011;45043;51.068;7.026;2023-04-28T09:35:16;11.20;;;7.30;;
59271;SDS011;45043;51.068;7.026;2023-04-28T09:38:42;7.07;;;6.00;;
59271;SDS011;45043;51.068;7.026;2023-04-28T09:41:44;10.00;;;6.83;;
59271;SDS011;45043;51.068;7.026;2023-04-28T09:44:51;10.80;;;7.13;;
59271;SDS011;45043;51.068;7.026;2023-04-28T09:47:54;8.90;;;7.13;;
59271;SDS011;45043;51.068;7.026;2023-04-28T09:51:10;7.97;;;6.77;;
59271;SDS011;45043;51.068;7.026;2023-04-28T09:54:10;9.27;;;6.77;;
59271;SDS011;45043;51.068;7.026;2023-04-28T09:57:12;10.00;;;7.63;;
59271;SDS011;45043;51.068;7.026;2023-04-28T10:00:13;11.17;;;7.63;;
59271;SDS011;45043;51.068;7.026;2023-04-28T10:03:16;8.10;;;7.30;;
59271;SDS011;45043;51.068;7.026;2023-04-28T10:06:19;8.97;;;6.93;;
59271;SDS011;45043;51.068;7.026;2023-04-28T10:09:20;9.30;;;8.00;;
59271;SDS011;45043;51.068;7.026;2023-04-28T10:12:26;11.00;;;7.67;;
59271;SDS011;45043;51.068;7.026;2023-04-28T10:15:27;9.80;;;8.47;;
59271;SDS011;45043;51.068;7.026;2023-04-28T10:18:28;8.93;;;7.37;;
59271;SDS011;45043;51.068;7.026;2023-04-28T10:21:31;12.73;;;8.53;;
59271;SDS011;45043;51.068;7.026;2023-04-28T10:24:47;11.90;;;8.40;;
59271;SDS011;45043;51.068;7.026;2023-04-28T10:28:11;9.30;;;7.70;;
59271;SDS011;45043;51.068;7.026;2023-04-28T10:31:13;11.60;;;7.90;;
59271;SDS011;45043;51.068;7.026;2023-04-28T10:34:21;9.70;;;7.83;;
59271;SDS011;45043;51.068;7.026;2023-04-28T10:38:01;7.73;;;6.87;;
59271;SDS011;45043;51.068;7.026;2023-04-28T10:41:04;8.77;;;7.97;;
59271;SDS011;45043;51.068;7.026;2023-04-28T10:54:15;10.13;;;8.53;;
59271;SDS011;45043;51.068;7.026;2023-04-28T10:57:17;8.90;;;8.00;;
59271;SDS011;45043;51.068;7.026;2023-04-28T11:00:27;9.70;;;8.03;;
59271;SDS011;45043;51.068;7.026;2023-04-28T11:07:10;11.33;;;8.83;;
59271;SDS011;45043;51.068;7.026;2023-04-28T11:10:13;11.47;;;10.10;;
59271;SDS011;45043;51.068;7.026;2023-04-28T11:13:26;12.67;;;9.00;;
59271;SDS011;45043;51.068;7.026;2023-04-28T11:16:31;11.87;;;10.37;;
59271;SDS011;45043;51.068;7.026;2023-04-28T11:19:35;13.37;;;12.00;;
59271;SDS011;45043;51.068;7.026;2023-04-28T11:22:38;13.10;;;11.57;;
59271;SDS011;45043;51.068;7.026;2023-04-28T11:25:55;13.90;;;11.43;;
59271;SDS011;45043;51.068;7.026;2023-04-28T11:28:57;12.80;;;10.60;;
59271;SDS011;45043;51.068;7.026;2023-04-28T11:31:57;13.27;;;11.93;;
59271;SDS011;45043;51.068;7.026;2023-04-28T11:34:59;14.70;;;11.60;;
59271;SDS011;45043;51.068;7.026;2023-04-28T11:38:01;12.40;;;11.20;;
59271;SDS011;45043;51.068;7.026;2023-04-28T11:41:03;13.23;;;11.80;;
59271;SDS011;45043;51.068;7.026;2023-04-28T11:44:11;13.07;;;11.77;;
59271;SDS011;45043;51.068;7.026;2023-04-28T11:47:15;12.07;;;10.10;;
59271;SDS011;45043;51.068;7.026;2023-04-28T11:50:36;13.07;;;10.80;;
59271;SDS011;45043;51.068;7.026;2023-04-28T11:53:41;13.13;;;11.93;;
59271;SDS011;45043;51.068;7.026;2023-04-28T11:56:43;12.67;;;11.43;;
59271;SDS011;45043;51.068;7.026;2023-04-28T11:59:44;12.40;;;11.03;;
59271;SDS011;45043;51.068;7.026;2023-04-28T12:02:45;13.50;;;12.07;;
59271;SDS011;45043;51.068;7.026;2023-04-28T12:05:46;14.87;;;13.40;;
59271;SDS011;45043;51.068;7.026;2023-04-28T12:08:47;13.63;;;12.43;;
59271;SDS011;45043;51.068;7.026;2023-04-28T12:11:55;14.10;;;12.80;;
59271;SDS011;45043;51.068;7.026;2023-04-28T12:15:02;12.67;;;11.57;;
59271;SDS011;45043;51.068;7.026;2023-04-28T12:18:08;12.73;;;11.63;;
59271;SDS011;45043;51.068;7.026;2023-04-28T12:21:19;12.00;;;10.93;;
59271;SDS011;45043;51.068;7.026;2023-04-28T12:24:20;11.97;;;10.87;;
59271;SDS011;45043;51.068;7.026;2023-04-28T12:27:21;12.23;;;11.13;;
59271;SDS011;45043;51.068;7.026;2023-04-28T12:30:24;12.33;;;11.20;;
59271;SDS011;45043;51.068;7.026;2023-04-28T12:33:26;12.23;;;11.13;;
59271;SDS011;45043;51.068;7.026;2023-04-28T12:36:28;17.23;;;12.50;;
59271;SDS011;45043;51.068;7.026;2023-04-28T12:39:28;15.23;;;13.63;;
59271;SDS011;45043;51.068;7.026;2023-04-28T12:42:29;12.50;;;11.40;;
59271;SDS011;45043;51.068;7.026;2023-04-28T12:45:30;12.17;;;10.20;;
59271;SDS011;45043;51.068;7.026;2023-04-28T12:48:31;12.07;;;10.97;;
59271;SDS011;45043;51.068;7.026;2023-04-28T12:51:33;11.70;;;10.60;;
59271;SDS011;45043;51.068;7.026;2023-04-28T12:54:34;11.40;;;10.30;;
59271;SDS011;45043;51.068;7.026;2023-04-28T12:57:43;11.53;;;10.53;;
59271;SDS011;45043;51.068;7.026;2023-04-28T13:00:43;12.50;;;11.40;;
59271;SDS011;45043;51.068;7.026;2023-04-28T13:03:44;11.80;;;10.80;;
59271;SDS011;45043;51.068;7.026;2023-04-28T13:06:47;11.90;;;10.80;;
59271;SDS011;45043;51.068;7.026;2023-04-28T13:09:48;11.53;;;10.53;;
59271;SDS011;45043;51.068;7.026;2023-04-28T13:12:48;12.70;;;11.60;;
59271;SDS011;45043;51.068;7.026;2023-04-28T13:15:49;13.37;;;12.17;;
59271;SDS011;45043;51.068;7.026;2023-04-28T13:18:50;16.93;;;15.23;;
59271;SDS011;45043;51.068;7.026;2023-04-28T13:21:51;14.37;;;12.77;;
59271;SDS011;45043;51.068;7.026;2023-04-28T13:24:53;13.23;;;11.93;;
59271;SDS011;45043;51.068;7.026;2023-04-28T13:27:53;14.23;;;12.93;;
59271;SDS011;45043;51.068;7.026;2023-04-28T13:30:54;15.27;;;13.00;;
59271;SDS011;45043;51.068;7.026;2023-04-28T13:33:55;12.57;;;11.37;;
59271;SDS011;45043;51.068;7.026;2023-04-28T13:36:56;10.27;;;9.37;;
59271;SDS011;45043;51.068;7.026;2023-04-28T13:39:56;11.07;;;9.97;;
59271;SDS011;45043;51.068;7.026;2023-04-28T13:42:58;10.77;;;9.87;;
59271;SDS011;45043;51.068;7.026;2023-04-28T13:45:59;9.07;;;8.27;;
59271;SDS011;45043;51.068;7.026;2023-04-28T13:49:00;8.00;;;7.20;;
59271;SDS011;45043;51.068;7.026;2023-04-28T13:52:01;7.57;;;6.97;;
59271;SDS011;45043;51.068;7.026;2023-04-28T13:55:02;7.97;;;7.27;;
59271;SDS011;45043;51.068;7.026;2023-04-28T13:58:04;8.23;;;7.53;;
59271;SDS011;45043;51.068;7.026;2023-04-28T14:01:05;10.47;;;6.90;;
59271;SDS011;45043;51.068;7.026;2023-04-28T14:04:07;8.13;;;7.33;;
59271;SDS011;45043;51.068;7.026;2023-04-28T14:07:07;7.20;;;6.60;;
59271;SDS011;45043;51.068;7.026;2023-04-28T14:10:08;8.27;;;6.93;;
59271;SDS011;45043;51.068;7.026;2023-04-28T14:13:10;7.40;;;6.70;;
59271;SDS011;45043;51.068;7.026;2023-04-28T14:16:11;6.60;;;6.00;;
59271;SDS011;45043;51.068;7.026;2023-04-28T14:19:11;6.23;;;5.73;;
59271;SDS011;45043;51.068;7.026;2023-04-28T14:22:18;7.43;;;6.83;;
59271;SDS011;45043;51.068;7.026;2023-04-28T14:25:19;5.73;;;5.27;;
59271;SDS011;45043;51.068;7.026;2023-04-28T14:28:20;7.00;;;5.80;;
59271;SDS011;45043;51.068;7.026;2023-04-28T14:31:20;5.23;;;4.83;;
59271;SDS011;45043;51.068;7.026;2023-04-28T14:34:21;5.77;;;5.13;;
59271;SDS011;45043;51.068;7.026;2023-04-28T14:37:22;4.90;;;4.50;;
59271;SDS011;45043;51.068;7.026;2023-04-28T14:40:22;5.87;;;4.73;;
59271;SDS011;45043;51.068;7.026;2023-04-28T14:43:22;5.50;;;4.27;;
59271;SDS011;45043;51.068;7.026;2023-04-28T14:46:23;3.80;;;3.43;;
59271;SDS011;45043;51.068;7.026;2023-04-28T14:49:24;3.27;;;2.30;;
59271;SDS011;45043;51.068;7.026;2023-04-28T14:52:26;2.03;;;1.90;;
59271;SDS011;45043;51.068;7.026;2023-04-28T14:55:29;4.03;;;1.93;;
59271;SDS011;45043;51.068;7.026;2023-04-28T14:58:31;2.10;;;1.90;;
59271;SDS011;45043;51.068;7.026;2023-04-28T15:01:31;2.00;;;1.90;;
59271;SDS011;45043;51.068;7.026;2023-04-28T15:04:32;2.20;;;2.10;;
59271;SDS011;45043;51.068;7.026;2023-04-28T15:07:32;2.30;;;2.20;;
59271;SDS011;45043;51.068;7.026;2023-04-28T15:10:36;2.57;;;2.20;;
59271;SDS011;45043;51.068;7.026;2023-04-28T15:13:39;2.87;;;2.50;;
59271;SDS011;45043;51.068;7.026;2023-04-28T15:16:40;2.33;;;2.23;;
59271;SDS011;45043;51.068;7.026;2023-04-28T15:19:40;2.30;;;2.20;;
59271;SDS011;45043;51.068;7.026;2023-04-28T15:22:40;3.77;;;2.23;;
59271;SDS011;45043;51.068;7.026;2023-04-28T15:25:43;2.33;;;2.07;;
59271;SDS011;45043;51.068;7.026;2023-04-28T15:28:44;2.10;;;2.00;;
59271;SDS011;45043;51.068;7.026;2023-04-28T15:31:44;1.77;;;1.60;;
59271;SDS011;45043;51.068;7.026;2023-04-28T15:34:45;2.00;;;1.90;;
59271;SDS011;45043;51.068;7.026;2023-04-28T15:37:46;4.50;;;1.80;;
59271;SDS011;45043;51.068;7.026;2023-04-28T15:40:51;2.80;;;2.00;;
59271;SDS011;45043;51.068;7.026;2023-04-28T15:43:52;2.83;;;2.20;;
59271;SDS011;45043;51.068;7.026;2023-04-28T15:46:55;3.93;;;2.10;;
59271;SDS011;45043;51.068;7.026;2023-04-28T15:49:56;2.77;;;2.00;;
59271;SDS011;45043;51.068;7.026;2023-04-28T15:52:58;5.43;;;2.43;;
59271;SDS011;45043;51.068;7.026;2023-04-28T15:55:59;3.53;;;2.40;;
59271;SDS011;45043;51.068;7.026;2023-04-28T15:58:59;6.17;;;2.60;;
59271;SDS011;45043;51.068;7.026;2023-04-28T16:02:00;2.10;;;2.00;;
59271;SDS011;45043;51.068;7.026;2023-04-28T16:05:01;2.63;;;2.43;;
59271;SDS011;45043;51.068;7.026;2023-04-28T16:08:04;3.90;;;3.70;;
59271;SDS011;45043;51.068;7.026;2023-04-28T16:11:04;3.30;;;3.00;;
59271;SDS011;45043;51.068;7.026;2023-04-28T16:14:07;6.17;;;5.67;;
59271;SDS011;45043;51.068;7.026;2023-04-28T16:17:08;6.33;;;5.87;;
59271;SDS011;45043;51.068;7.026;2023-04-28T16:20:08;3.87;;;3.60;;
59271;SDS011;45043;51.068;7.026;2023-04-28T16:23:10;2.57;;;2.37;;
59271;SDS011;45043;51.068;7.026;2023-04-28T16:26:11;5.20;;;4.90;;
59271;SDS011;45043;51.068;7.026;2023-04-28T16:29:11;1.83;;;1.73;;
59271;SDS011;45043;51.068;7.026;2023-04-28T16:32:12;2.10;;;2.00;;
59271;SDS011;45043;51.068;7.026;2023-04-28T16:35:13;2.90;;;2.40;;
59271;SDS011;45043;51.068;7.026;2023-04-28T16:38:14;2.83;;;2.57;;
59271;SDS011;45043;51.068;7.026;2023-04-28T16:41:15;3.00;;;2.53;;
59271;SDS011;45043;51.068;7.026;2023-04-28T16:44:16;2.53;;;2.43;;
59271;SDS011;45043;51.068;7.026;2023-04-28T16:47:17;3.10;;;2.80;;
59271;SDS011;45043;51.068;7.026;2023-04-28T16:50:18;3.10;;;2.90;;
59271;SDS011;45043;51.068;7.026;2023-04-28T16:53:19;3.10;;;2.90;;
59271;SDS011;45043;51.068;7.026;2023-04-28T16:56:19;3.07;;;2.87;;
59271;SDS011;45043;51.068;7.026;2023-04-28T16:59:21;2.90;;;2.60;;
59271;SDS011;45043;51.068;7.026;2023-04-28T17:02:30;2.80;;;2.60;;
59271;SDS011;45043;51.068;7.026;2023-04-28T17:05:31;3.43;;;2.90;;
59271;SDS011;45043;51.068;7.026;2023-04-28T17:08:31;3.73;;;3.43;;
59271;SDS011;45043;51.068;7.026;2023-04-28T17:11:32;2.97;;;2.77;;
59271;SDS011;45043;51.068;7.026;2023-04-28T17:14:36;2.60;;;2.40;;
59271;SDS011;45043;51.068;7.026;2023-04-28T17:17:38;2.90;;;2.70;;
59271;SDS011;45043;51.068;7.026;2023-04-28T17:20:38;3.17;;;2.60;;
59271;SDS011;45043;51.068;7.026;2023-04-28T17:23:39;3.73;;;2.80;;
59271;SDS011;45043;51.068;7.026;2023-04-28T17:26:39;3.30;;;3.00;;
59271;SDS011;45043;51.068;7.026;2023-04-28T17:29:41;3.27;;;2.97;;
59271;SDS011;45043;51.068;7.026;2023-04-28T17:32:42;3.50;;;2.83;;
59271;SDS011;45043;51.068;7.026;2023-04-28T17:35:43;2.70;;;2.50;;
59271;SDS011;45043;51.068;7.026;2023-04-28T17:38:44;3.23;;;2.93;;
59271;SDS011;45043;51.068;7.026;2023-04-28T17:41:45;3.20;;;2.90;;
59271;SDS011;45043;51.068;7.026;2023-04-28T17:44:46;3.40;;;3.10;;
59271;SDS011;45043;51.068;7.026;2023-04-28T17:47:46;3.53;;;3.20;;
59271;SDS011;45043;51.068;7.026;2023-04-28T17:50:47;5.20;;;3.43;;
59271;SDS011;45043;51.068;7.026;2023-04-28T17:53:48;2.80;;;2.60;;
59271;SDS011;45043;51.068;7.026;2023-04-28T17:56:48;3.47;;;3.17;;
59271;SDS011;45043;51.068;7.026;2023-04-28T17:59:50;3.03;;;2.83;;
59271;SDS011;45043;51.068;7.026;2023-04-28T18:02:50;4.40;;;3.30;;
59271;SDS011;45043;51.068;7.026;2023-04-28T18:05:51;4.57;;;3.10;;
59271;SDS011;45043;51.068;7.026;2023-04-28T18:08:52;5.47;;;3.67;;
59271;SDS011;45043;51.068;7.026;2023-04-28T18:11:52;3.47;;;3.17;;
59271;SDS011;45043;51.068;7.026;2023-04-28T18:14:55;4.13;;;3.37;;
59271;SDS011;45043;51.068;7.026;2023-04-28T18:17:57;4.27;;;3.00;;
59271;SDS011;45043;51.068;7.026;2023-04-28T18:20:58;3.40;;;3.10;;
59271;SDS011;45043;51.068;7.026;2023-04-28T18:23:59;3.10;;;2.80;;
59271;SDS011;45043;51.068;7.026;2023-04-28T18:26:59;3.83;;;3.00;;
59271;SDS011;45043;51.068;7.026;2023-04-28T18:30:01;3.57;;;2.93;;
59271;SDS011;45043;51.068;7.026;2023-04-28T18:33:02;5.17;;;2.87;;
59271;SDS011;45043;51.068;7.026;2023-04-28T18:36:04;3.50;;;3.13;;
59271;SDS011;45043;51.068;7.026;2023-04-28T18:39:06;3.37;;;3.07;;
59271;SDS011;45043;51.068;7.026;2023-04-28T18:42:08;4.10;;;3.30;;
59271;SDS011;45043;51.068;7.026;2023-04-28T18:45:11;4.20;;;3.20;;
59271;SDS011;45043;51.068;7.026;2023-04-28T18:48:15;3.60;;;3.30;;
59271;SDS011;45043;51.068;7.026;2023-04-28T18:51:16;3.30;;;3.00;;
59271;SDS011;45043;51.068;7.026;2023-04-28T18:54:16;3.87;;;3.47;;
59271;SDS011;45043;51.068;7.026;2023-04-28T18:57:17;3.37;;;3.10;;
59271;SDS011;45043;51.068;7.026;2023-04-28T19:00:18;3.77;;;3.00;;
59271;SDS011;45043;51.068;7.026;2023-04-28T19:03:23;4.30;;;3.30;;
59271;SDS011;45043;51.068;7.026;2023-04-28T19:06:23;4.37;;;3.60;;
59271;SDS011;45043;51.068;7.026;2023-04-28T19:09:24;3.70;;;3.23;;
59271;SDS011;45043;51.068;7.026;2023-04-28T19:12:25;3.90;;;3.60;;
59271;SDS011;45043;51.068;7.026;2023-04-28T19:15:25;3.60;;;3.30;;
59271;SDS011;45043;51.068;7.026;2023-04-28T19:18:27;3.80;;;3.50;;
59271;SDS011;45043;51.068;7.026;2023-04-28T19:21:32;5.73;;;3.50;;
59271;SDS011;45043;51.068;7.026;2023-04-28T19:24:34;3.97;;;3.63;;
59271;SDS011;45043;51.068;7.026;2023-04-28T19:27:35;4.00;;;3.70;;
59271;SDS011;45043;51.068;7.026;2023-04-28T19:30:39;4.13;;;3.73;;
59271;SDS011;45043;51.068;7.026;2023-04-28T19:33:39;4.00;;;3.70;;
59271;SDS011;45043;51.068;7.026;2023-04-28T19:36:40;4.70;;;4.10;;
59271;SDS011;45043;51.068;7.026;2023-04-28T19:39:40;4.57;;;4.10;;
59271;SDS011;45043;51.068;7.026;2023-04-28T19:42:41;4.83;;;4.13;;
59271;SDS011;45043;51.068;7.026;2023-04-28T19:45:42;5.03;;;4.10;;
59271;SDS011;45043;51.068;7.026;2023-04-28T19:48:43;4.60;;;4.20;;
59271;SDS011;45043;51.068;7.026;2023-04-28T19:51:46;5.03;;;4.27;;
59271;SDS011;45043;51.068;7.026;2023-04-28T19:54:47;5.13;;;4.67;;
59271;SDS011;45043;51.068;7.026;2023-04-28T19:57:48;6.10;;;4.50;;
59271;SDS011;45043;51.068;7.026;2023-04-28T20:00:49;5.13;;;4.73;;
59271;SDS011;45043;51.068;7.026;2023-04-28T20:03:49;6.10;;;4.70;;
59271;SDS011;45043;51.068;7.026;2023-04-28T20:06:50;5.00;;;4.50;;
59271;SDS011;45043;51.068;7.026;2023-04-28T20:09:50;6.20;;;5.20;;
59271;SDS011;45043;51.068;7.026;2023-04-28T20:12:52;5.50;;;5.00;;
59271;SDS011;45043;51.068;7.026;2023-04-28T20:15:53;5.63;;;5.13;;
59271;SDS011;45043;51.068;7.026;2023-04-28T20:18:54;16.47;;;13.63;;
59271;SDS011;45043;51.068;7.026;2023-04-28T20:21:54;6.30;;;5.70;;
59271;SDS011;45043;51.068;7.026;2023-04-28T20:24:55;8.60;;;7.53;;
59271;SDS011;45043;51.068;7.026;2023-04-28T20:27:59;6.00;;;5.50;;
59271;SDS011;45043;51.068;7.026;2023-04-28T20:31:00;56.13;;;38.03;;
59271;SDS011;45043;51.068;7.026;2023-04-28T20:34:01;10.33;;;7.50;;
59271;SDS011;45043;51.068;7.026;2023-04-28T20:37:03;7.03;;;5.73;;
59271;SDS011;45043;51.068;7.026;2023-04-28T20:40:06;18.17;;;13.67;;
59271;SDS011;45043;51.068;7.026;2023-04-28T20:43:09;5.70;;;5.20;;
59271;SDS011;45043;51.068;7.026;2023-04-28T20:46:10;5.63;;;4.97;;
59271;SDS011;45043;51.068;7.026;2023-04-28T20:49:12;5.43;;;4.73;;
59271;SDS011;45043;51.068;7.026;2023-04-28T20:52:15;14.07;;;12.67;;
59271;SDS011;45043;51.068;7.026;2023-04-28T20:55:17;6.13;;;4.50;;
59271;SDS011;45043;51.068;7.026;2023-04-28T20:58:17;6.90;;;5.20;;
59271;SDS011;45043;51.068;7.026;2023-04-28T21:01:18;5.40;;;4.90;;
59271;SDS011;45043;51.068;7.026;2023-04-28T21:04:18;5.80;;;4.93;;
59271;SDS011;45043;51.068;7.026;2023-04-28T21:07:19;7.07;;;6.37;;
59271;SDS011;45043;51.068;7.026;2023-04-28T21:10:19;5.50;;;5.00;;
59271;SDS011;45043;51.068;7.026;2023-04-28T21:13:20;5.90;;;5.40;;
59271;SDS011;45043;51.068;7.026;2023-04-28T21:16:20;6.00;;;5.30;;
59271;SDS011;45043;51.068;7.026;2023-04-28T21:19:21;8.10;;;5.97;;
59271;SDS011;45043;51.068;7.026;2023-04-28T21:22:21;7.13;;;6.37;;
59271;SDS011;45043;51.068;7.026;2023-04-28T21:25:24;5.77;;;5.27;;
59271;SDS011;45043;51.068;7.026;2023-04-28T21:28:25;5.53;;;4.80;;
59271;SDS011;45043;51.068;7.026;2023-04-28T21:31:25;6.00;;;4.80;;
59271;SDS011;45043;51.068;7.026;2023-04-28T21:34:26;5.30;;;4.87;;
59271;SDS011;45043;51.068;7.026;2023-04-28T21:37:26;6.10;;;5.60;;